PWSweather.com
Personal Weather Stations
Station Observations
FAUSKE
Nordland, Norway, FauskeNO 8200

Nordland, NorwayFauskeNO 8200

Lat: 67.2607586, Lon: 15.4114204

Elevation: 40

Station Type: Davis Vantage PRO2

http://www.bjornli.net/weather.html

Latest ConditionsUpdated 10:00:18 AM GMT+01:01 Friday, Feb 22, 2019
Currently Today's Max Today's Min Today's Average
Temperature 27.5°F-2.5°C 27.8°F-2.3°C 19.8°F-6.8°C 24.2°F-4.3°C
Dew Point 20.9°F-6.2°C 20.9°F-6.2°C 8.8°F-12.9°C 11.8°F-11.2°C
Winds 17.0 mph SE27.4 kmh SE 18.0 mph -29.0 kmh - - 7.5 mph 12.1 kmh
Wind Gusts 25.0 mph40.2 kmh 25.0 mph40.2 kmh - -
Humidity 76% 76% 52% 59%
Pressure 30.09 in1019.0 mb 30.25 in1024.4 mb 30.09 in1019.0 mb -
Hour Temp Dew Point Humidity Winds Wind Gusts Pressure Precip Precip Rate Daily Precip Total
10:00 AM 27.5°F-2.5°C 20.9°F-6.2°C 76% 17.0 mph SE27.4 kmh SE 25.0 mph40.2 kmh 30.09 in1019.0 mb 0.00 in0.0 mm 0.00 in0.0 mm 0.00 in0.0 mm
09:40 AM 27.8°F-2.3°C 19.6°F-6.9°C 71% 15.0 mph SE24.1 kmh SE 20.0 mph32.2 kmh 30.10 in1019.3 mb 0.00 in0.0 mm 0.00 in0.0 mm 0.00 in0.0 mm
09:30 AM 27.8°F-2.3°C 18.6°F-7.4°C 68% 9.0 mph SSE14.5 kmh SSE 11.0 mph17.7 kmh 30.10 in1019.3 mb 0.00 in0.0 mm 0.00 in0.0 mm 0.00 in0.0 mm
09:10 AM 27.3°F-2.6°C 17.1°F-8.3°C 65% 11.0 mph SE17.7 kmh SE 21.0 mph33.8 kmh 30.11 in1019.6 mb 0.00 in0.0 mm 0.00 in0.0 mm 0.00 in0.0 mm
09:00 AM 27.0°F-2.8°C 15.7°F-9.1°C 62% 6.0 mph SE9.7 kmh SE 15.0 mph24.1 kmh 30.12 in1020.0 mb 0.00 in0.0 mm 0.00 in0.0 mm 0.00 in0.0 mm
08:40 AM 26.9°F-2.8°C 13.7°F-10.2°C 57% 12.0 mph SE19.3 kmh SE 22.0 mph35.4 kmh 30.13 in1020.3 mb 0.00 in0.0 mm 0.00 in0.0 mm 0.00 in0.0 mm
08:30 AM 26.7°F-2.9°C 13.5°F-10.3°C 57% 14.0 mph SE22.5 kmh SE 20.0 mph32.2 kmh 30.13 in1020.3 mb 0.00 in0.0 mm 0.00 in0.0 mm 0.00 in0.0 mm
08:10 AM 26.2°F-3.2°C 11.8°F-11.2°C 54% 18.0 mph ESE29.0 kmh ESE 23.0 mph37.0 kmh 30.14 in1020.7 mb 0.00 in0.0 mm 0.00 in0.0 mm 0.00 in0.0 mm
08:00 AM 26.1°F-3.3°C 11.7°F-11.3°C 54% 13.0 mph ESE20.9 kmh ESE 15.0 mph24.1 kmh 30.15 in1021.0 mb 0.00 in0.0 mm 0.00 in0.0 mm 0.00 in0.0 mm
07:40 AM 25.7°F-3.5°C 11.4°F-11.4°C 54% 13.0 mph ESE20.9 kmh ESE 20.0 mph32.2 kmh 30.17 in1021.7 mb 0.00 in0.0 mm 0.00 in0.0 mm 0.00 in0.0 mm
07:30 AM 25.6°F-3.6°C 11.7°F-11.3°C 55% 10.0 mph SE16.1 kmh SE 12.0 mph19.3 kmh 30.17 in1021.7 mb 0.00 in0.0 mm 0.00 in0.0 mm 0.00 in0.0 mm
07:10 AM 25.5°F-3.6°C 10.3°F-12.1°C 52% 7.0 mph SE11.3 kmh SE 23.0 mph37.0 kmh 30.18 in1022.0 mb 0.00 in0.0 mm 0.00 in0.0 mm 0.00 in0.0 mm
07:00 AM 25.5°F-3.6°C 11.2°F-11.6°C 54% 17.0 mph SE27.4 kmh SE 19.0 mph30.6 kmh 30.18 in1022.0 mb 0.00 in0.0 mm 0.00 in0.0 mm 0.00 in0.0 mm
06:40 AM 25.0°F-3.9°C 11.1°F-11.6°C 55% 13.0 mph SSE20.9 kmh SSE 19.0 mph30.6 kmh 30.18 in1022.0 mb 0.00 in0.0 mm 0.00 in0.0 mm 0.00 in0.0 mm
06:30 AM 24.7°F-4.1°C 10.0°F-12.2°C 53% 7.0 mph SSE11.3 kmh SSE 20.0 mph32.2 kmh 30.18 in1022.0 mb 0.00 in0.0 mm 0.00 in0.0 mm 0.00 in0.0 mm
06:10 AM 24.5°F-4.2°C 10.7°F-11.8°C 55% 14.0 mph SE22.5 kmh SE 19.0 mph30.6 kmh 30.20 in1022.7 mb 0.00 in0.0 mm 0.00 in0.0 mm 0.00 in0.0 mm
06:00 AM 24.6°F-4.1°C 10.3°F-12.1°C 54% 10.0 mph SSE16.1 kmh SSE 12.0 mph19.3 kmh 30.20 in1022.7 mb 0.00 in0.0 mm 0.00 in0.0 mm 0.00 in0.0 mm
05:40 AM 24.2°F-4.3°C 10.4°F-12.0°C 55% 11.0 mph SE17.7 kmh SE 14.0 mph22.5 kmh 30.20 in1022.7 mb 0.00 in0.0 mm 0.00 in0.0 mm 0.00 in0.0 mm
05:30 AM 24.1°F-4.4°C 11.9°F-11.2°C 59% 9.0 mph SE14.5 kmh SE 10.0 mph16.1 kmh 30.21 in1023.0 mb 0.00 in0.0 mm 0.00 in0.0 mm 0.00 in0.0 mm
05:10 AM 23.5°F-4.7°C 11.3°F-11.5°C 59% 10.0 mph SE16.1 kmh SE 15.0 mph24.1 kmh 30.21 in1023.0 mb 0.00 in0.0 mm 0.00 in0.0 mm 0.00 in0.0 mm
05:00 AM 23.6°F-4.7°C 11.8°F-11.2°C 60% 9.0 mph SE14.5 kmh SE 9.0 mph14.5 kmh 30.22 in1023.4 mb 0.00 in0.0 mm 0.00 in0.0 mm 0.00 in0.0 mm
04:40 AM 23.7°F-4.6°C 12.2°F-11.0°C 61% 9.0 mph SE14.5 kmh SE 11.0 mph17.7 kmh 30.22 in1023.4 mb 0.00 in0.0 mm 0.00 in0.0 mm 0.00 in0.0 mm
04:30 AM 23.7°F-4.6°C 11.5°F-11.4°C 59% 1.0 mph SSE1.6 kmh SSE 4.0 mph6.4 kmh 30.22 in1023.4 mb 0.00 in0.0 mm 0.00 in0.0 mm 0.00 in0.0 mm
04:10 AM 23.2°F-4.9°C 11.4°F-11.4°C 60% 7.0 mph SE11.3 kmh SE 11.0 mph17.7 kmh 30.23 in1023.7 mb 0.00 in0.0 mm 0.00 in0.0 mm 0.00 in0.0 mm
04:00 AM 23.7°F-4.6°C 11.5°F-11.4°C 59% 1.0 mph SSE1.6 kmh SSE 2.0 mph3.2 kmh 30.23 in1023.7 mb 0.00 in0.0 mm 0.00 in0.0 mm 0.00 in0.0 mm
03:40 AM 20.2°F-6.6°C 10.3°F-12.1°C 65% 7.0 mph SSE11.3 kmh SSE 13.0 mph20.9 kmh 30.22 in1023.4 mb 0.00 in0.0 mm 0.00 in0.0 mm 0.00 in0.0 mm
03:30 AM 19.8°F-6.8°C 10.0°F-12.2°C 65% Calm Calm -- 30.22 in1023.4 mb 0.00 in0.0 mm 0.00 in0.0 mm 0.00 in0.0 mm
03:10 AM 20.2°F-6.6°C 9.6°F-12.4°C 63% Calm Calm 6.0 mph9.7 kmh 30.24 in1024.0 mb 0.00 in0.0 mm 0.00 in0.0 mm 0.00 in0.0 mm
03:00 AM 20.8°F-6.2°C 8.8°F-12.9°C 59% Calm Calm -- 30.24 in1024.0 mb 0.00 in0.0 mm 0.00 in0.0 mm 0.00 in0.0 mm
02:40 AM 21.3°F-5.9°C 9.6°F-12.4°C 60% 5.0 mph SE8.0 kmh SE 7.0 mph11.3 kmh 30.24 in1024.0 mb 0.00 in0.0 mm 0.00 in0.0 mm 0.00 in0.0 mm
02:30 AM 21.1°F-6.1°C 9.0°F-12.8°C 59% 1.0 mph SE1.6 kmh SE 1.0 mph1.6 kmh 30.25 in1024.4 mb 0.00 in0.0 mm 0.00 in0.0 mm 0.00 in0.0 mm
02:10 AM 21.5°F-5.8°C 9.0°F-12.8°C 58% 1.0 mph SE1.6 kmh SE 3.0 mph4.8 kmh 30.24 in1024.0 mb 0.00 in0.0 mm 0.00 in0.0 mm 0.00 in0.0 mm
02:00 AM 22.2°F-5.4°C 8.9°F-12.8°C 56% Calm Calm -- 30.25 in1024.4 mb 0.00 in0.0 mm 0.00 in0.0 mm 0.00 in0.0 mm
01:40 AM 23.0°F-5.0°C 9.7°F-12.4°C 56% Calm Calm 1.0 mph1.6 kmh 30.25 in1024.4 mb 0.00 in0.0 mm 0.00 in0.0 mm 0.00 in0.0 mm
01:30 AM 23.5°F-4.7°C 8.9°F-12.8°C 53% Calm Calm -- 30.24 in1024.0 mb 0.00 in0.0 mm 0.00 in0.0 mm 0.00 in0.0 mm
01:10 AM 25.4°F-3.7°C 11.9°F-11.2°C 56% 1.0 mph SSE1.6 kmh SSE 14.0 mph22.5 kmh 30.24 in1024.0 mb 0.00 in0.0 mm 0.00 in0.0 mm 0.00 in0.0 mm
01:00 AM 25.7°F-3.5°C 11.8°F-11.2°C 55% 7.0 mph S11.3 kmh S 10.0 mph16.1 kmh 30.23 in1023.7 mb 0.00 in0.0 mm 0.00 in0.0 mm 0.00 in0.0 mm
12:40 AM 24.6°F-4.1°C 12.3°F-10.9°C 59% 12.0 mph S19.3 kmh S 14.0 mph22.5 kmh 30.23 in1023.7 mb 0.00 in0.0 mm 0.00 in0.0 mm 0.00 in0.0 mm
12:30 AM 24.0°F-4.4°C 12.5°F-10.8°C 61% 9.0 mph S14.5 kmh S 11.0 mph17.7 kmh 30.23 in1023.7 mb 0.00 in0.0 mm 0.00 in0.0 mm 0.00 in0.0 mm
12:10 AM 21.5°F-5.8°C 9.0°F-12.8°C 58% Calm Calm -- 30.22 in1023.4 mb 0.00 in0.0 mm 0.00 in0.0 mm 0.00 in0.0 mm
12:00 AM 21.4°F-5.9°C 8.9°F-12.8°C 58% Calm Calm -- 30.23 in1023.7 mb 0.00 in0.0 mm 0.00 in0.0 mm 0.00 in0.0 mm